createdAt,value
2022-08-26T00:00:02.152Z,23.91
2022-08-26T00:07:02.049Z,23.81
2022-08-26T00:14:01.501Z,23.81
2022-08-26T00:21:01.588Z,23.69
2022-08-26T00:28:01.717Z,23.69
2022-08-26T00:35:02.417Z,23.7
2022-08-26T00:42:01.415Z,23.7
2022-08-26T00:49:01.686Z,23.55
2022-08-26T00:56:02.050Z,23.55
2022-08-26T01:00:01.649Z,23.45
2022-08-26T01:07:01.568Z,23.45
2022-08-26T01:14:01.471Z,23.51
2022-08-26T01:21:02.288Z,23.51
2022-08-26T01:28:01.377Z,23.4
2022-08-26T01:35:01.718Z,23.3
2022-08-26T01:42:03.054Z,23.3
2022-08-26T01:49:02.465Z,23.27
2022-08-26T01:56:01.821Z,23.27
2022-08-26T02:00:01.731Z,23.27
2022-08-26T02:07:01.683Z,23.17
2022-08-26T02:14:02.279Z,23.14
2022-08-26T02:21:02.165Z,23.14
2022-08-26T02:28:01.566Z,22.97
2022-08-26T02:35:02.420Z,22.97
2022-08-26T02:42:01.416Z,22.93
2022-08-26T02:49:01.449Z,22.93
2022-08-26T02:56:01.802Z,22.88
2022-08-26T03:00:01.783Z,22.88
2022-08-26T03:07:02.133Z,22.71
2022-08-26T03:14:03.682Z,22.71
2022-08-26T03:21:01.936Z,22.64
2022-08-26T03:28:01.967Z,22.64
2022-08-26T03:35:02.161Z,22.53
2022-08-26T03:42:02.323Z,22.53
2022-08-26T03:49:01.508Z,22.54
2022-08-26T03:56:02.259Z,22.54
2022-08-26T04:00:01.789Z,22.43
2022-08-26T04:07:02.111Z,22.43
2022-08-26T04:14:01.469Z,22.46
2022-08-26T04:21:02.195Z,22.46
2022-08-26T04:28:01.729Z,22.45
2022-08-26T04:35:02.072Z,22.45
2022-08-26T04:42:02.195Z,22.41
2022-08-26T04:49:02.000Z,22.38
2022-08-26T04:56:03.095Z,22.38
2022-08-26T05:00:01.956Z,22.38
2022-08-26T05:07:02.684Z,22.32
2022-08-26T05:14:02.561Z,22.34
2022-08-26T05:21:01.623Z,22.34
2022-08-26T05:28:01.583Z,22.38
2022-08-26T05:35:02.018Z,22.38
2022-08-26T05:42:01.588Z,22.28
2022-08-26T05:49:01.334Z,22.28
2022-08-26T05:56:02.178Z,22.33
2022-08-26T06:00:01.782Z,22.33
2022-08-26T06:07:01.359Z,22.39
2022-08-26T06:14:03.783Z,22.39
2022-08-26T06:21:01.475Z,22.37
2022-08-26T06:28:01.965Z,22.37
2022-08-26T06:35:02.102Z,22.42
2022-08-26T06:42:02.663Z,22.42
2022-08-26T06:49:01.927Z,22.31
2022-08-26T06:56:02.124Z,22.31
2022-08-26T07:00:01.639Z,22.4
2022-08-26T07:07:01.962Z,22.4
2022-08-26T07:14:02.054Z,22.35
2022-08-26T07:21:02.277Z,22.35
2022-08-26T07:28:01.387Z,22.29
2022-08-26T07:35:01.557Z,22.29
2022-08-26T07:42:01.621Z,22.3
2022-08-26T07:49:02.162Z,22.31
2022-08-26T07:56:02.256Z,22.31
2022-08-26T08:00:01.894Z,22.31
2022-08-26T08:07:02.306Z,22.35
2022-08-26T08:14:01.599Z,22.31
2022-08-26T08:21:21.200Z,22.31
2022-08-26T08:28:02.227Z,22.29
2022-08-26T08:35:01.874Z,22.29
2022-08-26T08:42:02.194Z,22.25
2022-08-26T08:49:01.900Z,22.25
2022-08-26T08:56:01.861Z,22.28
2022-08-26T09:00:02.471Z,22.28
2022-08-26T09:07:01.441Z,22.27
2022-08-26T09:14:01.461Z,22.27
2022-08-26T09:21:01.969Z,22.25
2022-08-26T09:28:01.396Z,22.25
2022-08-26T09:35:02.132Z,22.29
2022-08-26T09:42:01.825Z,22.29
2022-08-26T09:49:02.241Z,22.32
2022-08-26T09:56:01.870Z,22.32
2022-08-26T10:00:01.613Z,22.33
2022-08-26T10:07:01.716Z,22.33
2022-08-26T10:14:02.065Z,22.37
2022-08-26T10:21:01.463Z,22.37
2022-08-26T10:28:01.847Z,22.4
2022-08-26T10:35:01.829Z,22.4
2022-08-26T10:42:01.834Z,22.5
2022-08-26T10:49:03.193Z,22.5
2022-08-26T10:56:01.503Z,22.5
2022-08-26T11:00:02.146Z,22.5
2022-08-26T11:07:01.848Z,22.63
2022-08-26T11:14:01.967Z,22.63
2022-08-26T11:21:01.351Z,22.62
2022-08-26T11:28:01.568Z,22.69
2022-08-26T11:35:02.315Z,22.69
2022-08-26T11:42:01.819Z,22.77
2022-08-26T11:49:01.508Z,22.77
2022-08-26T11:56:01.728Z,22.9
2022-08-26T12:00:02.401Z,22.9
2022-08-26T12:07:02.322Z,22.87
2022-08-26T12:14:01.914Z,22.87
2022-08-26T12:21:01.511Z,22.84
2022-08-26T12:28:01.516Z,22.84
2022-08-26T12:42:01.786Z,22.84
2022-08-26T12:49:02.331Z,22.97
2022-08-26T12:56:02.009Z,22.97
2022-08-26T13:00:01.504Z,22.98
2022-08-26T13:07:01.861Z,22.98
2022-08-26T13:14:02.307Z,23.02
2022-08-26T13:21:01.381Z,23.02
2022-08-26T13:28:01.609Z,23.08
2022-08-26T13:35:05.782Z,23.08
2022-08-26T13:42:01.472Z,23.07
2022-08-26T13:49:01.422Z,22.91
2022-08-26T13:56:01.730Z,22.91
2022-08-26T14:00:02.400Z,22.91
2022-08-26T14:07:02.184Z,23.04
2022-08-26T14:14:01.685Z,23.04
2022-08-26T14:21:01.445Z,23.03
2022-08-26T14:28:02.213Z,22.95
2022-08-26T14:35:01.872Z,22.95
2022-08-26T14:42:01.587Z,22.93
2022-08-26T14:49:03.516Z,22.93
2022-08-26T14:56:01.750Z,22.93
2022-08-26T15:00:02.441Z,22.93
2022-08-26T15:07:01.895Z,22.98
2022-08-26T15:14:01.966Z,22.98
2022-08-26T15:21:01.999Z,23.02
2022-08-26T15:28:02.216Z,23.02
2022-08-26T15:35:05.531Z,23.08
2022-08-26T15:42:01.360Z,23.08
2022-08-26T15:49:01.508Z,23
2022-08-26T15:56:02.020Z,23
2022-08-26T16:00:01.907Z,23.02
2022-08-26T16:07:02.247Z,23.02
2022-08-26T16:14:01.768Z,22.94
2022-08-26T16:21:13.516Z,22.94
2022-08-26T16:28:01.562Z,22.91
2022-08-26T16:35:02.259Z,22.91
2022-08-26T16:42:01.881Z,22.79
2022-08-26T16:49:02.327Z,22.7
2022-08-26T16:56:02.094Z,22.7
2022-08-26T17:00:01.567Z,22.7
2022-08-26T17:07:02.026Z,22.77
2022-08-26T17:14:02.197Z,22.77
2022-08-26T17:21:02.201Z,22.73
2022-08-26T17:28:02.014Z,22.59
2022-08-26T17:35:02.044Z,22.59
2022-08-26T17:42:01.641Z,22.59
2022-08-26T17:49:01.510Z,22.59
2022-08-26T17:56:02.182Z,22.56
2022-08-26T18:00:01.826Z,22.56
2022-08-26T18:07:02.224Z,22.48
2022-08-26T18:14:01.357Z,22.48
2022-08-26T18:21:02.090Z,22.5
2022-08-26T18:28:01.824Z,22.5
2022-08-26T18:35:02.330Z,22.51
2022-08-26T18:42:01.364Z,22.51
2022-08-26T18:49:02.143Z,22.44
2022-08-26T18:56:02.086Z,22.44
2022-08-26T19:00:01.688Z,22.32
2022-08-26T19:07:01.769Z,22.32
2022-08-26T19:14:01.864Z,22.27
2022-08-26T19:21:01.371Z,22.27
2022-08-26T19:28:02.292Z,22.15
2022-08-26T19:35:02.011Z,22.15
2022-08-26T19:42:01.766Z,22.07
2022-08-26T19:49:01.557Z,22.13
2022-08-26T19:56:02.322Z,22.13
2022-08-26T20:00:01.866Z,22.13
2022-08-26T20:07:01.918Z,22.12
2022-08-26T20:14:01.942Z,22.12
2022-08-26T20:21:01.938Z,21.98
2022-08-26T20:28:01.691Z,21.91
2022-08-26T20:35:01.578Z,21.91
2022-08-26T20:42:02.155Z,21.9
2022-08-26T20:49:01.965Z,21.9
2022-08-26T20:56:02.292Z,21.86
2022-08-26T21:00:01.840Z,21.86
2022-08-26T21:07:01.492Z,21.72
2022-08-26T21:14:06.789Z,21.72
2022-08-26T21:21:01.629Z,21.65
2022-08-26T21:28:01.724Z,21.65
2022-08-26T21:35:02.178Z,21.66
2022-08-26T21:42:01.535Z,21.66
2022-08-26T21:49:01.527Z,21.58
2022-08-26T21:56:01.504Z,21.58
2022-08-26T22:00:04.575Z,21.51
2022-08-26T22:07:01.414Z,21.51
2022-08-26T22:14:02.291Z,21.39
2022-08-26T22:21:01.919Z,21.39
2022-08-26T22:28:01.779Z,21.28
2022-08-26T22:35:02.403Z,21.28
2022-08-26T22:42:01.483Z,21.23
2022-08-26T22:49:01.731Z,21.1
2022-08-26T22:56:02.280Z,21.1
2022-08-26T23:00:01.703Z,21.1
2022-08-26T23:07:01.619Z,20.93
2022-08-26T23:14:06.188Z,20.93
2022-08-26T23:21:02.082Z,20.82
2022-08-26T23:28:01.611Z,20.65
2022-08-26T23:35:02.559Z,20.65
2022-08-26T23:42:01.885Z,20.44
2022-08-26T23:49:01.577Z,20.44
2022-08-26T23:56:01.418Z,20.3
